Time,TemperatureF,DewpointF,PressureIn,WindDirection,WindDirectionDegrees,WindSpeedMPH,WindSpeedGustMPH,Humidity,HourlyPrecipIn,Conditions,Clouds,dailyrainin,SoftwareType,DateUTC
2013-08-27 00:04:00,61.8,45.5,24.87,East,89,3.0,-999.0,55,-99.99,,,-99.99,dwt +perl,2013-08-27 07:04:00,
2013-08-27 00:09:00,61.8,45.5,24.87,East,89,3.0,-999.0,55,-99.99,,,-99.99,dwt +perl,2013-08-27 07:09:00,
2013-08-27 00:14:00,61.9,45.5,24.87,East,89,3.0,-999.0,55,-99.99,,,-99.99,dwt +perl,2013-08-27 07:14:00,
2013-08-27 00:19:00,62.0,45.2,24.87,East,91,5.0,-999.0,54,-99.99,,,-99.99,dwt +perl,2013-08-27 07:19:00,
2013-08-27 00:24:00,62.1,45.2,24.87,East,92,5.0,-999.0,54,-99.99,,,-99.99,dwt +perl,2013-08-27 07:24:00,
2013-08-27 00:29:00,62.1,45.2,24.87,East,95,6.0,-999.0,54,-99.99,,,-99.99,dwt +perl,2013-08-27 07:29:00,
2013-08-27 00:34:00,62.1,44.3,24.87,East,99,3.0,-999.0,52,-99.99,,,-99.99,dwt +perl,2013-08-27 07:34:00,
2013-08-27 00:39:00,62.2,44.3,24.87,ESE,110,7.0,-999.0,52,-99.99,,,-99.99,dwt +perl,2013-08-27 07:39:00,
2013-08-27 00:44:00,62.4,41.9,24.87,ESE,122,7.0,-999.0,47,-99.99,,,-99.99,dwt +perl,2013-08-27 07:44:00,
2013-08-27 00:49:00,63.1,39.6,24.87,ESE,123,7.0,-999.0,42,-99.99,,,-99.99,dwt +perl,2013-08-27 07:49:00,
2013-08-27 00:54:00,63.6,40.1,24.87,SE,128,8.0,-999.0,42,-99.99,,,-99.99,dwt +perl,2013-08-27 07:54:00,
2013-08-27 00:59:00,64.1,39.9,24.87,SE,129,7.0,-999.0,41,-99.99,,,-99.99,dwt +perl,2013-08-27 07:59:00,
2013-08-27 01:04:00,64.3,40.1,24.87,SE,127,6.0,-999.0,41,-99.99,,,-99.99,dwt +perl,2013-08-27 08:04:00,
2013-08-27 01:09:00,64.3,39.5,24.87,SE,129,4.0,-999.0,40,-99.99,,,-99.99,dwt +perl,2013-08-27 08:09:00,
2013-08-27 01:14:00,64.0,39.2,24.87,SE,129,3.0,-999.0,40,-99.99,,,-99.99,dwt +perl,2013-08-27 08:14:00,
2013-08-27 01:19:00,63.8,39.0,24.87,SE,131,3.0,-999.0,40,-99.99,,,-99.99,dwt +perl,2013-08-27 08:19:00,
2013-08-27 01:24:00,63.6,38.8,24.87,SE,129,6.0,-999.0,40,-99.99,,,-99.99,dwt +perl,2013-08-27 08:24:00,
2013-08-27 01:29:00,63.5,38.7,24.87,SE,131,4.0,-999.0,40,-99.99,,,-99.99,dwt +perl,2013-08-27 08:29:00,
2013-08-27 01:34:00,63.6,37.5,24.87,SE,130,7.0,-999.0,38,-99.99,,,-99.99,dwt +perl,2013-08-27 08:34:00,
2013-08-27 01:39:00,63.7,37.6,24.87,SE,133,3.0,-999.0,38,-99.99,,,-99.99,dwt +perl,2013-08-27 08:39:00,
2013-08-27 01:44:00,63.7,37.6,24.87,SE,137,4.0,-999.0,38,-99.99,,,-99.99,dwt +perl,2013-08-27 08:44:00,
2013-08-27 01:49:00,63.7,37.6,24.87,SE,129,5.0,-999.0,38,-99.99,,,-99.99,dwt +perl,2013-08-27 08:49:00,
2013-08-27 01:54:00,63.6,38.2,24.86,SE,143,2.0,-999.0,39,-99.99,,,-99.99,dwt +perl,2013-08-27 08:54:00,
2013-08-27 01:59:00,63.6,38.2,24.86,SSE,157,5.0,-999.0,39,-99.99,,,-99.99,dwt +perl,2013-08-27 08:59:00,
2013-08-27 02:04:00,63.7,37.6,24.86,SSE,154,3.0,-999.0,38,-99.99,,,-99.99,dwt +perl,2013-08-27 09:04:00,
2013-08-27 02:09:00,63.8,37.0,24.86,SSE,165,5.0,-999.0,37,-99.99,,,-99.99,dwt +perl,2013-08-27 09:09:00,
2013-08-27 02:14:00,63.8,37.0,24.86,SSE,152,5.0,-999.0,37,-99.99,,,-99.99,dwt +perl,2013-08-27 09:14:00,
2013-08-27 02:19:00,63.5,38.1,24.86,ESE,117,0.0,-999.0,39,-99.99,,,-99.99,dwt +perl,2013-08-27 09:19:00,
2013-08-27 02:24:00,63.1,40.2,24.86,ESE,117,4.0,-999.0,43,-99.99,,,-99.99,dwt +perl,2013-08-27 09:24:00,
2013-08-27 02:29:00,62.5,37.8,24.86,ESE,118,3.0,-999.0,40,-99.99,,,-99.99,dwt +perl,2013-08-27 09:29:00,
2013-08-27 02:34:00,62.8,38.1,24.86,SE,130,5.0,-999.0,40,-99.99,,,-99.99,dwt +perl,2013-08-27 09:34:00,
2013-08-27 02:39:00,63.1,38.4,24.86,SE,128,7.0,-999.0,40,-99.99,,,-99.99,dwt +perl,2013-08-27 09:39:00,
2013-08-27 02:44:00,63.4,36.7,24.86,SE,128,7.0,-999.0,37,-99.99,,,-99.99,dwt +perl,2013-08-27 09:44:00,
2013-08-27 02:49:00,63.5,38.1,24.86,SE,129,5.0,-999.0,39,-99.99,,,-99.99,dwt +perl,2013-08-27 09:49:00,
2013-08-27 02:54:00,63.5,36.1,24.86,SE,137,2.0,-999.0,36,-99.99,,,-99.99,dwt +perl,2013-08-27 09:54:00,
2013-08-27 02:59:00,63.7,35.5,24.86,SE,145,5.0,-999.0,35,-99.99,,,-99.99,dwt +perl,2013-08-27 09:59:00,
2013-08-27 03:04:00,63.7,35.5,24.86,SSE,151,2.0,-999.0,35,-99.99,,,-99.99,dwt +perl,2013-08-27 10:04:00,
2013-08-27 03:09:00,63.7,35.5,24.86,SSE,156,5.0,-999.0,35,-99.99,,,-99.99,dwt +perl,2013-08-27 10:09:00,
2013-08-27 03:14:00,63.6,35.4,24.86,SE,137,4.0,-999.0,35,-99.99,,,-99.99,dwt +perl,2013-08-27 10:14:00,
2013-08-27 03:19:00,63.5,36.1,24.85,SE,139,4.0,-999.0,36,-99.99,,,-99.99,dwt +perl,2013-08-27 10:19:00,
2013-08-27 03:24:00,63.6,35.4,24.86,SE,132,2.0,-999.0,35,-99.99,,,-99.99,dwt +perl,2013-08-27 10:24:00,
2013-08-27 03:29:00,63.6,36.2,24.86,SE,129,2.0,-999.0,36,-99.99,,,-99.99,dwt +perl,2013-08-27 10:29:00,
2013-08-27 03:34:00,63.4,36.7,24.85,SE,129,1.0,-999.0,37,-99.99,,,-99.99,dwt +perl,2013-08-27 10:34:00,
2013-08-27 03:39:00,63.2,38.5,24.85,ESE,122,0.0,-999.0,40,-99.99,,,-99.99,dwt +perl,2013-08-27 10:39:00,
2013-08-27 03:44:00,62.8,38.1,24.85,ESE,122,3.0,-999.0,40,-99.99,,,-99.99,dwt +perl,2013-08-27 10:44:00,
2013-08-27 03:49:00,62.6,37.9,24.85,SE,126,2.0,-999.0,40,-99.99,,,-99.99,dwt +perl,2013-08-27 10:49:00,
2013-08-27 03:54:00,62.7,36.7,24.85,ESE,121,8.0,-999.0,38,-99.99,,,-99.99,dwt +perl,2013-08-27 10:54:00,
2013-08-27 03:59:00,62.9,36.9,24.85,SE,124,4.0,-999.0,38,-99.99,,,-99.99,dwt +perl,2013-08-27 10:59:00,
2013-08-27 04:04:00,63.0,36.3,24.85,SE,133,4.0,-999.0,37,-99.99,,,-99.99,dwt +perl,2013-08-27 11:04:00,
2013-08-27 04:09:00,63.0,36.3,24.85,SE,131,4.0,-999.0,37,-99.99,,,-99.99,dwt +perl,2013-08-27 11:09:00,
2013-08-27 04:14:00,63.0,36.3,24.85,SE,131,3.0,-999.0,37,-99.99,,,-99.99,dwt +perl,2013-08-27 11:14:00,
2013-08-27 04:19:00,63.1,35.7,24.84,SSE,160,4.0,-999.0,36,-99.99,,,-99.99,dwt +perl,2013-08-27 11:19:00,
2013-08-27 04:24:00,63.3,35.2,24.84,SSE,150,5.0,-999.0,35,-99.99,,,-99.99,dwt +perl,2013-08-27 11:24:00,
2013-08-27 04:29:00,63.3,35.2,24.84,SE,139,5.0,-999.0,35,-99.99,,,-99.99,dwt +perl,2013-08-27 11:29:00,
2013-08-27 04:34:00,63.2,35.8,24.84,SE,129,5.0,-999.0,36,-99.99,,,-99.99,dwt +perl,2013-08-27 11:34:00,
2013-08-27 04:39:00,63.1,35.7,24.84,SE,129,6.0,-999.0,36,-99.99,,,-99.99,dwt +perl,2013-08-27 11:39:00,
2013-08-27 04:44:00,63.0,35.6,24.85,SE,139,4.0,-999.0,36,-99.99,,,-99.99,dwt +perl,2013-08-27 11:44:00,
2013-08-27 04:49:00,63.0,34.9,24.85,SE,133,6.0,-999.0,35,-99.99,,,-99.99,dwt +perl,2013-08-27 11:49:00,
2013-08-27 04:54:00,63.2,34.4,24.85,SE,137,6.0,-999.0,34,-99.99,,,-99.99,dwt +perl,2013-08-27 11:54:00,
2013-08-27 04:59:00,63.3,33.7,24.85,SE,133,5.0,-999.0,33,-99.99,,,-99.99,dwt +perl,2013-08-27 11:59:00,
2013-08-27 05:04:00,63.4,33.8,24.84,SE,133,6.0,-999.0,33,-99.99,,,-99.99,dwt +perl,2013-08-27 12:04:00,
2013-08-27 05:09:00,63.5,34.6,24.84,SE,131,6.0,-999.0,34,-99.99,,,-99.99,dwt +perl,2013-08-27 12:09:00,
2013-08-27 05:14:00,63.4,33.8,24.84,SSE,147,5.0,-999.0,33,-99.99,,,-99.99,dwt +perl,2013-08-27 12:14:00,
2013-08-27 05:19:00,63.5,33.9,24.84,ESE,122,4.0,-999.0,33,-99.99,,,-99.99,dwt +perl,2013-08-27 12:19:00,
2013-08-27 05:24:00,63.4,34.5,24.84,SSE,162,3.0,-999.0,34,-99.99,,,-99.99,dwt +perl,2013-08-27 12:24:00,
2013-08-27 05:29:00,63.3,34.5,24.84,SE,142,4.0,-999.0,34,-99.99,,,-99.99,dwt +perl,2013-08-27 12:29:00,
2013-08-27 05:34:00,63.3,34.5,24.84,South,173,5.0,-999.0,34,-99.99,,,-99.99,dwt +perl,2013-08-27 12:34:00,
2013-08-27 05:39:00,63.2,35.8,24.84,South,170,5.0,-999.0,36,-99.99,,,-99.99,dwt +perl,2013-08-27 12:39:00,
2013-08-27 05:44:00,63.3,35.2,24.84,South,184,5.0,-999.0,35,-99.99,,,-99.99,dwt +perl,2013-08-27 12:44:00,
2013-08-27 05:49:00,63.2,36.5,24.84,SSW,199,6.0,-999.0,37,-99.99,,,-99.99,dwt +perl,2013-08-27 12:49:00,
2013-08-27 05:54:00,63.2,35.1,24.84,SSW,200,5.0,-999.0,35,-99.99,,,-99.99,dwt +perl,2013-08-27 12:54:00,
2013-08-27 05:59:00,63.2,34.4,24.84,SSW,201,7.0,-999.0,34,-99.99,,,-99.99,dwt +perl,2013-08-27 12:59:00,
2013-08-27 06:04:00,63.1,35.7,24.84,SSW,199,7.0,-999.0,36,-99.99,,,-99.99,dwt +perl,2013-08-27 13:04:00,
2013-08-27 06:09:00,62.9,36.2,24.84,SSW,193,5.0,-999.0,37,-99.99,,,-99.99,dwt +perl,2013-08-27 13:09:00,
2013-08-27 06:14:00,62.6,37.9,24.84,South,191,5.0,-999.0,40,-99.99,,,-99.99,dwt +perl,2013-08-27 13:14:00,
2013-08-27 06:19:00,62.5,37.8,24.84,South,189,8.0,-999.0,40,-99.99,,,-99.99,dwt +perl,2013-08-27 13:19:00,
2013-08-27 06:24:00,62.7,36.0,24.84,South,181,6.0,-999.0,37,-99.99,,,-99.99,dwt +perl,2013-08-27 13:24:00,
2013-08-27 06:29:00,63.0,34.2,24.84,South,179,9.0,-999.0,34,-99.99,,,-99.99,dwt +perl,2013-08-27 13:29:00,
2013-08-27 06:34:00,63.2,35.8,24.84,SSE,163,6.0,-999.0,36,-99.99,,,-99.99,dwt +perl,2013-08-27 13:34:00,
2013-08-27 06:39:00,63.2,35.8,24.85,South,169,6.0,-999.0,36,-99.99,,,-99.99,dwt +perl,2013-08-27 13:39:00,
2013-08-27 06:44:00,63.3,35.9,24.84,South,179,6.0,-999.0,36,-99.99,,,-99.99,dwt +perl,2013-08-27 13:44:00,
2013-08-27 06:49:00,63.5,36.1,24.85,South,172,6.0,-999.0,36,-99.99,,,-99.99,dwt +perl,2013-08-27 13:49:00,
2013-08-27 06:54:00,63.7,33.3,24.85,South,183,4.0,-999.0,32,-99.99,,,-99.99,dwt +perl,2013-08-27 13:54:00,
2013-08-27 06:59:00,64.2,30.4,24.84,South,176,6.0,-999.0,28,-99.99,,,-99.99,dwt +perl,2013-08-27 13:59:00,
2013-08-27 07:04:00,64.8,29.1,24.85,SSE,160,7.0,-999.0,26,-99.99,,,-99.99,dwt +perl,2013-08-27 14:04:00,
2013-08-27 07:09:00,65.3,30.5,24.85,SSE,168,5.0,-999.0,27,-99.99,,,-99.99,dwt +perl,2013-08-27 14:09:00,
2013-08-27 07:14:00,65.6,30.7,24.85,SSE,159,5.0,-999.0,27,-99.99,,,-99.99,dwt +perl,2013-08-27 14:14:00,
2013-08-27 07:19:00,65.6,27.8,24.85,South,177,3.0,-999.0,24,-99.99,,,-99.99,dwt +perl,2013-08-27 14:19:00,
2013-08-27 07:24:00,65.9,28.1,24.85,South,178,8.0,-999.0,24,-99.99,,,-99.99,dwt +perl,2013-08-27 14:24:00,
2013-08-27 07:29:00,66.2,28.3,24.85,SSE,154,4.0,-999.0,24,-99.99,,,-99.99,dwt +perl,2013-08-27 14:29:00,
2013-08-27 07:34:00,66.5,28.6,24.85,SE,137,1.0,-999.0,24,-99.99,,,-99.99,dwt +perl,2013-08-27 14:34:00,
2013-08-27 07:39:00,66.5,30.5,24.85,SE,139,3.0,-999.0,26,-99.99,,,-99.99,dwt +perl,2013-08-27 14:39:00,
2013-08-27 07:44:00,66.5,33.3,24.85,SE,141,3.0,-999.0,29,-99.99,,,-99.99,dwt +perl,2013-08-27 14:44:00,
2013-08-27 07:49:00,66.5,34.1,24.85,ESE,119,0.0,-999.0,30,-99.99,,,-99.99,dwt +perl,2013-08-27 14:49:00,
2013-08-27 07:54:00,66.6,34.2,24.85,SSE,158,1.0,-999.0,30,-99.99,,,-99.99,dwt +perl,2013-08-27 14:54:00,
2013-08-27 07:59:00,66.7,35.9,24.85,SE,132,5.0,-999.0,32,-99.99,,,-99.99,dwt +perl,2013-08-27 14:59:00,
2013-08-27 08:04:00,67.1,37.0,24.85,ESE,118,3.0,-999.0,33,-99.99,,,-99.99,dwt +perl,2013-08-27 15:04:00,
2013-08-27 08:09:00,67.6,35.9,24.85,SSE,158,5.0,-999.0,31,-99.99,,,-99.99,dwt +perl,2013-08-27 15:09:00,
2013-08-27 08:14:00,67.3,36.4,24.85,SSE,162,2.0,-999.0,32,-99.99,,,-99.99,dwt +perl,2013-08-27 15:14:00,
2013-08-27 08:19:00,67.1,39.2,24.85,ESE,113,1.0,-999.0,36,-99.99,,,-99.99,dwt +perl,2013-08-27 15:19:00,
2013-08-27 08:24:00,67.1,37.0,24.85,SE,144,0.0,-999.0,33,-99.99,,,-99.99,dwt +perl,2013-08-27 15:24:00,
2013-08-27 08:29:00,67.4,41.6,24.85,SE,138,0.0,-999.0,39,-99.99,,,-99.99,dwt +perl,2013-08-27 15:29:00,
2013-08-27 08:34:00,68.0,39.3,24.85,SE,138,2.0,-999.0,35,-99.99,,,-99.99,dwt +perl,2013-08-27 15:34:00,
2013-08-27 08:39:00,68.2,42.9,24.85,SSE,152,2.0,-999.0,40,-99.99,,,-99.99,dwt +perl,2013-08-27 15:39:00,
2013-08-27 08:44:00,69.0,42.3,24.85,SE,142,0.0,-999.0,38,-99.99,,,-99.99,dwt +perl,2013-08-27 15:44:00,
2013-08-27 08:49:00,69.2,43.8,24.85,SE,133,2.0,-999.0,40,-99.99,,,-99.99,dwt +perl,2013-08-27 15:49:00,
2013-08-27 08:54:00,69.6,41.5,24.84,SE,133,0.0,-999.0,36,-99.99,,,-99.99,dwt +perl,2013-08-27 15:54:00,
2013-08-27 08:59:00,69.9,43.8,24.84,SE,133,0.0,-999.0,39,-99.99,,,-99.99,dwt +perl,2013-08-27 15:59:00,
2013-08-27 09:04:00,70.1,39.7,24.84,SE,133,0.0,-999.0,33,-99.99,,,-99.99,dwt +perl,2013-08-27 16:04:00,
2013-08-27 09:09:00,70.2,44.7,24.84,SE,131,0.0,-999.0,40,-99.99,,,-99.99,dwt +perl,2013-08-27 16:09:00,
2013-08-27 09:14:00,70.5,45.0,24.84,ENE,78,3.0,-999.0,40,-99.99,,,-99.99,dwt +perl,2013-08-27 16:14:00,
2013-08-27 09:19:00,70.8,44.6,24.84,East,87,2.0,-999.0,39,-99.99,,,-99.99,dwt +perl,2013-08-27 16:19:00,
2013-08-27 09:24:00,70.7,45.2,24.84,East,83,1.0,-999.0,40,-99.99,,,-99.99,dwt +perl,2013-08-27 16:24:00,
2013-08-27 09:29:00,70.6,44.4,24.84,East,82,5.0,-999.0,39,-99.99,,,-99.99,dwt +perl,2013-08-27 16:29:00,
2013-08-27 09:34:00,70.4,44.2,24.84,East,85,3.0,-999.0,39,-99.99,,,-99.99,dwt +perl,2013-08-27 16:34:00,
2013-08-27 09:39:00,70.6,43.0,24.84,East,93,0.0,-999.0,37,-99.99,,,-99.99,dwt +perl,2013-08-27 16:39:00,
2013-08-27 09:44:00,70.9,44.7,24.84,ESE,103,5.0,-999.0,39,-99.99,,,-99.99,dwt +perl,2013-08-27 16:44:00,
2013-08-27 09:49:00,71.0,44.1,24.84,East,83,3.0,-999.0,38,-99.99,,,-99.99,dwt +perl,2013-08-27 16:49:00,
2013-08-27 09:54:00,70.7,43.1,24.84,East,92,5.0,-999.0,37,-99.99,,,-99.99,dwt +perl,2013-08-27 16:54:00,
2013-08-27 09:59:00,70.7,45.2,24.84,East,86,2.0,-999.0,40,-99.99,,,-99.99,dwt +perl,2013-08-27 16:59:00,
2013-08-27 10:04:00,70.6,45.7,24.84,NE,43,3.0,-999.0,41,-99.99,,,-99.99,dwt +perl,2013-08-27 17:04:00,
2013-08-27 10:09:00,70.7,45.2,24.84,ENE,70,3.0,-999.0,40,-99.99,,,-99.99,dwt +perl,2013-08-27 17:09:00,
2013-08-27 10:14:00,70.9,46.7,24.84,ENE,58,1.0,-999.0,42,-99.99,,,-99.99,dwt +perl,2013-08-27 17:14:00,
2013-08-27 10:19:00,71.1,46.8,24.84,ENE,58,5.0,-999.0,42,-99.99,,,-99.99,dwt +perl,2013-08-27 17:19:00,
2013-08-27 10:24:00,71.2,46.9,24.84,ENE,67,1.0,-999.0,42,-99.99,,,-99.99,dwt +perl,2013-08-27 17:24:00,
2013-08-27 10:29:00,71.3,47.6,24.84,ENE,61,2.0,-999.0,43,-99.99,,,-99.99,dwt +perl,2013-08-27 17:29:00,
2013-08-27 10:34:00,71.7,48.0,24.84,NE,56,3.0,-999.0,43,-99.99,,,-99.99,dwt +perl,2013-08-27 17:34:00,
2013-08-27 10:39:00,72.1,47.7,24.84,NE,55,3.0,-999.0,42,-99.99,,,-99.99,dwt +perl,2013-08-27 17:39:00,
2013-08-27 10:44:00,72.3,47.3,24.84,NE,41,3.0,-999.0,41,-99.99,,,-99.99,dwt +perl,2013-08-27 17:44:00,
2013-08-27 10:49:00,72.3,47.9,24.84,NE,37,3.0,-999.0,42,-99.99,,,-99.99,dwt +perl,2013-08-27 17:49:00,
2013-08-27 10:54:00,72.2,47.8,24.84,NE,48,4.0,-999.0,42,-99.99,,,-99.99,dwt +perl,2013-08-27 17:54:00,
2013-08-27 10:59:00,72.3,47.3,24.84,NE,46,5.0,-999.0,41,-99.99,,,-99.99,dwt +perl,2013-08-27 17:59:00,
2013-08-27 11:04:00,72.1,47.1,24.84,NE,46,4.0,-999.0,41,-99.99,,,-99.99,dwt +perl,2013-08-27 18:04:00,
2013-08-27 11:09:00,71.8,46.8,24.84,ENE,78,2.0,-999.0,41,-99.99,,,-99.99,dwt +perl,2013-08-27 18:09:00,
2013-08-27 11:14:00,71.5,47.8,24.84,NE,41,0.0,-999.0,43,-99.99,,,-99.99,dwt +perl,2013-08-27 18:14:00,
2013-08-27 11:19:00,72.0,47.6,24.84,NE,42,4.0,-999.0,42,-99.99,,,-99.99,dwt +perl,2013-08-27 18:19:00,
2013-08-27 11:24:00,72.2,47.8,24.84,NE,36,7.0,-999.0,42,-99.99,,,-99.99,dwt +perl,2013-08-27 18:24:00,
2013-08-27 11:29:00,72.1,47.7,24.84,NE,41,6.0,-999.0,42,-99.99,,,-99.99,dwt +perl,2013-08-27 18:29:00,
2013-08-27 11:34:00,72.2,47.8,24.84,NE,45,2.0,-999.0,42,-99.99,,,-99.99,dwt +perl,2013-08-27 18:34:00,
2013-08-27 11:39:00,72.1,47.7,24.84,NE,45,4.0,-999.0,42,-99.99,,,-99.99,dwt +perl,2013-08-27 18:39:00,
2013-08-27 11:44:00,72.4,48.6,24.84,NE,51,1.0,-999.0,43,-99.99,,,-99.99,dwt +perl,2013-08-27 18:44:00,
2013-08-27 11:49:00,73.0,48.5,24.84,NE,44,5.0,-999.0,42,-99.99,,,-99.99,dwt +perl,2013-08-27 18:49:00,
2013-08-27 11:54:00,72.6,48.2,24.84,ENE,64,2.0,-999.0,42,-99.99,,,-99.99,dwt +perl,2013-08-27 18:54:00,
2013-08-27 11:59:00,72.9,48.4,24.84,NE,50,4.0,-999.0,42,-99.99,,,-99.99,dwt +perl,2013-08-27 18:59:00,
2013-08-27 12:09:00,72.9,48.4,24.84,NE,48,5.0,-999.0,42,-99.99,,,-99.99,dwt +perl,2013-08-27 19:09:00,
2013-08-27 12:14:00,73.2,48.7,24.84,NE,39,2.0,-999.0,42,-99.99,,,-99.99,dwt +perl,2013-08-27 19:14:00,
2013-08-27 12:19:00,73.5,48.3,24.84,NE,40,2.0,-999.0,41,-99.99,,,-99.99,dwt +perl,2013-08-27 19:19:00,
2013-08-27 12:29:00,73.8,48.6,24.83,ENE,68,3.0,-999.0,41,-99.99,,,-99.99,dwt +perl,2013-08-27 19:29:00,
2013-08-27 12:34:00,73.6,48.4,24.83,NE,37,4.0,-999.0,41,-99.99,,,-99.99,dwt +perl,2013-08-27 19:34:00,
2013-08-27 12:39:00,73.5,48.3,24.83,NE,48,3.0,-999.0,41,-99.99,,,-99.99,dwt +perl,2013-08-27 19:39:00,
2013-08-27 12:44:00,73.8,48.0,24.83,NE,48,5.0,-999.0,40,-99.99,,,-99.99,dwt +perl,2013-08-27 19:44:00,
2013-08-27 12:49:00,74.2,48.3,24.83,NE,51,7.0,-999.0,40,-99.99,,,-99.99,dwt +perl,2013-08-27 19:49:00,
2013-08-27 12:54:00,74.6,48.7,24.83,NE,43,4.0,-999.0,40,-99.99,,,-99.99,dwt +perl,2013-08-27 19:54:00,
2013-08-27 12:59:00,75.1,47.7,24.83,NE,43,0.0,-999.0,38,-99.99,,,-99.99,dwt +perl,2013-08-27 19:59:00,
2013-08-27 13:04:00,75.1,47.7,24.83,NE,41,2.0,-999.0,38,-99.99,,,-99.99,dwt +perl,2013-08-27 20:04:00,
2013-08-27 13:09:00,75.4,48.0,24.83,NE,45,2.0,-999.0,38,-99.99,,,-99.99,dwt +perl,2013-08-27 20:09:00,
2013-08-27 13:14:00,75.0,47.7,24.83,NE,35,2.0,-999.0,38,-99.99,,,-99.99,dwt +perl,2013-08-27 20:14:00,
2013-08-27 13:19:00,75.1,47.7,24.83,NE,37,2.0,-999.0,38,-99.99,,,-99.99,dwt +perl,2013-08-27 20:19:00,
2013-08-27 13:24:00,75.3,47.9,24.83,NE,43,0.0,-999.0,38,-99.99,,,-99.99,dwt +perl,2013-08-27 20:24:00,
2013-08-27 13:29:00,75.6,48.2,24.83,NE,41,0.0,-999.0,38,-99.99,,,-99.99,dwt +perl,2013-08-27 20:29:00,
2013-08-27 13:34:00,75.9,46.3,24.83,NE,43,0.0,-999.0,35,-99.99,,,-99.99,dwt +perl,2013-08-27 20:34:00,
2013-08-27 13:39:00,76.1,47.9,24.83,NE,44,4.0,-999.0,37,-99.99,,,-99.99,dwt +perl,2013-08-27 20:39:00,
2013-08-27 13:44:00,76.8,48.5,24.83,NE,43,0.0,-999.0,37,-99.99,,,-99.99,dwt +perl,2013-08-27 20:44:00,
2013-08-27 13:49:00,76.8,48.5,24.83,ENE,75,1.0,-999.0,37,-99.99,,,-99.99,dwt +perl,2013-08-27 20:49:00,
2013-08-27 13:54:00,76.7,47.7,24.83,South,179,2.0,-999.0,36,-99.99,,,-99.99,dwt +perl,2013-08-27 20:54:00,
2013-08-27 13:59:00,76.0,48.5,24.83,East,90,0.0,-999.0,38,-99.99,,,-99.99,dwt +perl,2013-08-27 20:59:00,
2013-08-27 14:04:00,75.7,48.3,24.83,ESE,114,0.0,-999.0,38,-99.99,,,-99.99,dwt +perl,2013-08-27 21:04:00,
2013-08-27 14:19:00,75.1,48.4,24.82,SSE,148,1.0,-999.0,39,-99.99,,,-99.99,dwt +perl,2013-08-27 21:19:00,
2013-08-27 14:44:00,75.6,48.2,24.82,ESE,114,0.0,-999.0,38,-99.99,,,-99.99,dwt +perl,2013-08-27 21:44:00,
2013-08-27 14:54:00,74.6,48.0,24.81,West,278,0.0,-999.0,39,-99.99,,,-99.99,dwt +perl,2013-08-27 21:54:00,
2013-08-27 14:59:00,72.8,47.1,24.81,NW,311,5.0,-999.0,40,-99.99,,,-99.99,dwt +perl,2013-08-27 21:59:00,
2013-08-27 15:04:00,72.0,47.6,24.81,West,274,5.0,-999.0,42,-99.99,,,-99.99,dwt +perl,2013-08-27 22:04:00,
2013-08-27 15:09:00,71.7,47.4,24.81,WSW,237,3.0,-999.0,42,-99.99,,,-99.99,dwt +perl,2013-08-27 22:09:00,
2013-08-27 15:14:00,71.9,47.5,24.81,WSW,243,6.0,-999.0,42,-99.99,,,-99.99,dwt +perl,2013-08-27 22:14:00,
2013-08-27 15:19:00,72.3,47.9,24.81,West,270,5.0,-999.0,42,-99.99,,,-99.99,dwt +perl,2013-08-27 22:19:00,
2013-08-27 15:24:00,72.9,48.4,24.81,SSW,211,5.0,-999.0,42,-99.99,,,-99.99,dwt +perl,2013-08-27 22:24:00,
2013-08-27 15:29:00,73.5,48.3,24.81,West,265,1.0,-999.0,41,-99.99,,,-99.99,dwt +perl,2013-08-27 22:29:00,
2013-08-27 15:34:00,74.0,48.8,24.81,SSW,208,2.0,-999.0,41,-99.99,,,-99.99,dwt +perl,2013-08-27 22:34:00,
2013-08-27 15:39:00,74.0,48.8,24.81,SW,214,1.0,-999.0,41,-99.99,,,-99.99,dwt +perl,2013-08-27 22:39:00,
2013-08-27 15:44:00,74.6,48.0,24.81,WNW,291,5.0,-999.0,39,-99.99,,,-99.99,dwt +perl,2013-08-27 22:44:00,
2013-08-27 15:49:00,74.5,47.9,24.80,SW,216,5.0,-999.0,39,-99.99,,,-99.99,dwt +perl,2013-08-27 22:49:00,
2013-08-27 15:54:00,73.6,47.8,24.80,SSW,206,1.0,-999.0,40,-99.99,,,-99.99,dwt +perl,2013-08-27 22:54:00,
2013-08-27 15:59:00,73.3,48.2,24.80,West,271,4.0,-999.0,41,-99.99,,,-99.99,dwt +perl,2013-08-27 22:59:00,
2013-08-27 16:04:00,72.1,48.3,24.80,WNW,299,8.0,-999.0,43,-99.99,,,-99.99,dwt +perl,2013-08-27 23:04:00,
2013-08-27 16:09:00,72.1,48.3,24.80,SSW,208,4.0,-999.0,43,-99.99,,,-99.99,dwt +perl,2013-08-27 23:09:00,
2013-08-27 16:14:00,72.7,48.3,24.80,WSW,247,9.0,-999.0,42,-99.99,,,-99.99,dwt +perl,2013-08-27 23:14:00,
2013-08-27 16:19:00,72.3,47.9,24.80,SW,219,4.0,-999.0,42,-99.99,,,-99.99,dwt +perl,2013-08-27 23:19:00,
2013-08-27 16:24:00,71.8,48.1,24.80,SW,230,10.0,-999.0,43,-99.99,,,-99.99,dwt +perl,2013-08-27 23:24:00,
2013-08-27 16:29:00,72.0,47.6,24.80,WSW,244,5.0,-999.0,42,-99.99,,,-99.99,dwt +perl,2013-08-27 23:29:00,
2013-08-27 16:34:00,72.2,48.4,24.80,SSW,202,4.0,-999.0,43,-99.99,,,-99.99,dwt +perl,2013-08-27 23:34:00,
2013-08-27 16:39:00,70.9,47.3,24.80,SSW,212,9.0,-999.0,43,-99.99,,,-99.99,dwt +perl,2013-08-27 23:39:00,
2013-08-27 16:44:00,71.1,48.1,24.80,West,262,4.0,-999.0,44,-99.99,,,-99.99,dwt +perl,2013-08-27 23:44:00,
2013-08-27 16:49:00,71.0,47.4,24.80,SW,226,8.0,-999.0,43,-99.99,,,-99.99,dwt +perl,2013-08-27 23:49:00,
2013-08-27 16:54:00,70.4,47.4,24.80,SW,227,10.0,-999.0,44,-99.99,,,-99.99,dwt +perl,2013-08-27 23:54:00,
2013-08-27 16:59:00,69.7,47.4,24.80,SW,219,9.0,-999.0,45,-99.99,,,-99.99,dwt +perl,2013-08-27 23:59:00,
2013-08-27 17:04:00,69.9,47.6,24.80,SSW,206,7.0,-999.0,45,-99.99,,,-99.99,dwt +perl,2013-08-28 00:04:00,
2013-08-27 17:09:00,70.3,47.9,24.80,SW,224,8.0,-999.0,45,-99.99,,,-99.99,dwt +perl,2013-08-28 00:09:00,
2013-08-27 17:14:00,69.6,47.3,24.80,SSW,202,8.0,-999.0,45,-99.99,,,-99.99,dwt +perl,2013-08-28 00:14:00,
2013-08-27 17:19:00,69.9,47.6,24.80,SSW,205,7.0,-999.0,45,-99.99,,,-99.99,dwt +perl,2013-08-28 00:19:00,
2013-08-27 17:24:00,68.8,47.2,24.80,SSW,207,7.0,-999.0,46,-99.99,,,-99.99,dwt +perl,2013-08-28 00:24:00,
2013-08-27 17:29:00,68.6,47.5,24.80,SSW,201,7.0,-999.0,47,-99.99,,,-99.99,dwt +perl,2013-08-28 00:29:00,
2013-08-27 17:34:00,68.7,47.1,24.80,SW,221,9.0,-999.0,46,-99.99,,,-99.99,dwt +perl,2013-08-28 00:34:00,
2013-08-27 17:39:00,68.3,46.7,24.80,WSW,237,8.0,-999.0,46,-99.99,,,-99.99,dwt +perl,2013-08-28 00:39:00,
2013-08-27 17:44:00,67.8,46.8,24.80,SW,220,7.0,-999.0,47,-99.99,,,-99.99,dwt +perl,2013-08-28 00:44:00,
2013-08-27 17:49:00,67.7,47.3,24.80,WSW,258,5.0,-999.0,48,-99.99,,,-99.99,dwt +perl,2013-08-28 00:49:00,
2013-08-27 17:54:00,67.7,46.7,24.80,SW,214,7.0,-999.0,47,-99.99,,,-99.99,dwt +perl,2013-08-28 00:54:00,
2013-08-27 17:59:00,66.6,46.3,24.80,SW,218,7.0,-999.0,48,-99.99,,,-99.99,dwt +perl,2013-08-28 00:59:00,
2013-08-27 18:04:00,66.2,45.9,24.80,SW,220,8.0,-999.0,48,-99.99,,,-99.99,dwt +perl,2013-08-28 01:04:00,
2013-08-27 18:09:00,66.3,46.0,24.80,SW,234,5.0,-999.0,48,-99.99,,,-99.99,dwt +perl,2013-08-28 01:09:00,
2013-08-27 18:14:00,66.1,46.4,24.80,West,261,4.0,-999.0,49,-99.99,,,-99.99,dwt +perl,2013-08-28 01:14:00,
2013-08-27 18:24:00,65.6,46.5,24.80,SW,234,8.0,-999.0,50,-99.99,,,-99.99,dwt +perl,2013-08-28 01:24:00,
2013-08-27 18:29:00,65.2,46.1,24.80,WSW,253,5.0,-999.0,50,-99.99,,,-99.99,dwt +perl,2013-08-28 01:29:00,
2013-08-27 18:34:00,64.8,46.2,24.80,WSW,239,9.0,-999.0,51,-99.99,,,-99.99,dwt +perl,2013-08-28 01:34:00,
2013-08-27 18:39:00,64.5,46.5,24.80,WSW,245,6.0,-999.0,52,-99.99,,,-99.99,dwt +perl,2013-08-28 01:39:00,
2013-08-27 18:44:00,64.5,47.0,24.80,WSW,237,5.0,-999.0,53,-99.99,,,-99.99,dwt +perl,2013-08-28 01:44:00,
2013-08-27 18:59:00,64.8,47.8,24.80,West,268,4.0,-999.0,54,-99.99,,,-99.99,dwt +perl,2013-08-28 01:59:00,
2013-08-27 19:04:00,64.8,47.8,24.80,West,268,5.0,-999.0,54,-99.99,,,-99.99,dwt +perl,2013-08-28 02:04:00,
2013-08-27 19:14:00,64.5,47.5,24.80,WSW,243,7.0,-999.0,54,-99.99,,,-99.99,dwt +perl,2013-08-28 02:14:00,
2013-08-27 19:19:00,64.5,47.0,24.80,WSW,242,7.0,-999.0,53,-99.99,,,-99.99,dwt +perl,2013-08-28 02:19:00,
2013-08-27 19:29:00,64.6,46.0,24.80,WSW,241,7.0,-999.0,51,-99.99,,,-99.99,dwt +perl,2013-08-28 02:29:00,
2013-08-27 19:34:00,64.6,44.5,24.80,WSW,240,6.0,-999.0,48,-99.99,,,-99.99,dwt +perl,2013-08-28 02:34:00,
2013-08-27 19:39:00,64.7,44.0,24.80,WSW,240,6.0,-999.0,47,-99.99,,,-99.99,dwt +perl,2013-08-28 02:39:00,
2013-08-27 19:44:00,64.5,42.1,24.80,WSW,239,5.0,-999.0,44,-99.99,,,-99.99,dwt +perl,2013-08-28 02:44:00,
2013-08-27 19:49:00,64.4,42.0,24.80,WSW,239,4.0,-999.0,44,-99.99,,,-99.99,dwt +perl,2013-08-28 02:49:00,
2013-08-27 19:54:00,64.2,42.4,24.80,WSW,239,4.0,-999.0,45,-99.99,,,-99.99,dwt +perl,2013-08-28 02:54:00,
2013-08-27 20:04:00,64.2,42.4,24.80,WSW,239,5.0,-999.0,45,-99.99,,,-99.99,dwt +perl,2013-08-28 03:04:00,
2013-08-27 20:09:00,64.3,40.7,24.81,WSW,239,0.0,-999.0,42,-99.99,,,-99.99,dwt +perl,2013-08-28 03:09:00,
2013-08-27 20:14:00,64.5,40.3,24.81,WSW,239,1.0,-999.0,41,-99.99,,,-99.99,dwt +perl,2013-08-28 03:14:00,
2013-08-27 20:19:00,64.6,38.4,24.81,SSW,212,0.0,-999.0,38,-99.99,,,-99.99,dwt +perl,2013-08-28 03:19:00,
2013-08-27 20:24:00,64.7,34.9,24.81,SSW,212,6.0,-999.0,33,-99.99,,,-99.99,dwt +perl,2013-08-28 03:24:00,
2013-08-27 20:29:00,64.8,34.2,24.81,SSW,212,0.0,-999.0,32,-99.99,,,-99.99,dwt +perl,2013-08-28 03:29:00,
2013-08-27 20:34:00,64.7,35.7,24.81,SSW,212,4.0,-999.0,34,-99.99,,,-99.99,dwt +perl,2013-08-28 03:34:00,
2013-08-27 20:39:00,64.5,37.6,24.82,SSW,212,5.0,-999.0,37,-99.99,,,-99.99,dwt +perl,2013-08-28 03:39:00,
2013-08-27 20:44:00,64.4,38.2,24.82,SSW,212,5.0,-999.0,38,-99.99,,,-99.99,dwt +perl,2013-08-28 03:44:00,
2013-08-27 20:54:00,64.3,38.8,24.82,SSW,212,3.0,-999.0,39,-99.99,,,-99.99,dwt +perl,2013-08-28 03:54:00,
2013-08-27 20:59:00,64.1,39.9,24.82,SSW,212,4.0,-999.0,41,-99.99,,,-99.99,dwt +perl,2013-08-28 03:59:00,
2013-08-27 21:04:00,63.9,37.8,24.82,SSW,212,1.0,-999.0,38,-99.99,,,-99.99,dwt +perl,2013-08-28 04:04:00,
2013-08-27 21:09:00,63.8,33.4,24.82,SSW,212,0.0,-999.0,32,-99.99,,,-99.99,dwt +perl,2013-08-28 04:09:00,
2013-08-27 21:14:00,63.6,29.9,24.82,SSW,212,1.0,-999.0,28,-99.99,,,-99.99,dwt +perl,2013-08-28 04:14:00,
2013-08-27 21:19:00,63.6,28.1,24.83,SSW,212,3.0,-999.0,26,-99.99,,,-99.99,dwt +perl,2013-08-28 04:19:00,
2013-08-27 21:24:00,63.9,25.4,24.83,SSW,212,2.0,-999.0,23,-99.99,,,-99.99,dwt +perl,2013-08-28 04:24:00,
2013-08-27 21:29:00,64.2,24.6,24.83,SSW,212,5.0,-999.0,22,-99.99,,,-99.99,dwt +perl,2013-08-28 04:29:00,
2013-08-27 21:34:00,64.4,24.7,24.83,SSW,212,4.0,-999.0,22,-99.99,,,-99.99,dwt +perl,2013-08-28 04:34:00,
2013-08-27 21:39:00,64.7,23.9,24.83,SSW,212,5.0,-999.0,21,-99.99,,,-99.99,dwt +perl,2013-08-28 04:39:00,
2013-08-27 21:44:00,64.7,25.0,24.83,SSW,212,5.0,-999.0,22,-99.99,,,-99.99,dwt +perl,2013-08-28 04:44:00,
2013-08-27 21:49:00,64.9,22.9,24.83,SSW,212,5.0,-999.0,20,-99.99,,,-99.99,dwt +perl,2013-08-28 04:49:00,
2013-08-27 21:54:00,64.9,22.9,24.83,SSW,212,4.0,-999.0,20,-99.99,,,-99.99,dwt +perl,2013-08-28 04:54:00,
2013-08-27 21:59:00,65.0,21.7,24.83,SSW,212,4.0,-999.0,19,-99.99,,,-99.99,dwt +perl,2013-08-28 04:59:00,
2013-08-27 22:04:00,65.1,21.8,24.83,SSW,212,4.0,-999.0,19,-99.99,,,-99.99,dwt +perl,2013-08-28 05:04:00,
2013-08-27 22:09:00,65.1,21.8,24.83,SSW,212,1.0,-999.0,19,-99.99,,,-99.99,dwt +perl,2013-08-28 05:09:00,
2013-08-27 22:14:00,65.0,20.5,24.83,SSW,212,0.0,-999.0,18,-99.99,,,-99.99,dwt +perl,2013-08-28 05:14:00,
2013-08-27 22:19:00,65.0,20.5,24.83,SSW,212,0.0,-999.0,18,-99.99,,,-99.99,dwt +perl,2013-08-28 05:19:00,
2013-08-27 22:24:00,65.0,20.5,24.83,SSW,212,1.0,-999.0,18,-99.99,,,-99.99,dwt +perl,2013-08-28 05:24:00,
2013-08-27 22:29:00,64.9,20.4,24.83,SSW,212,1.0,-999.0,18,-99.99,,,-99.99,dwt +perl,2013-08-28 05:29:00,
2013-08-27 22:34:00,64.8,20.3,24.83,SSW,212,1.0,-999.0,18,-99.99,,,-99.99,dwt +perl,2013-08-28 05:34:00,
2013-08-27 22:39:00,64.8,20.3,24.83,SSW,212,2.0,-999.0,18,-99.99,,,-99.99,dwt +perl,2013-08-28 05:39:00,
2013-08-27 22:44:00,64.8,20.3,24.83,SSW,212,0.0,-999.0,18,-99.99,,,-99.99,dwt +perl,2013-08-28 05:44:00,
2013-08-27 22:49:00,64.8,20.3,24.83,SSW,212,1.0,-999.0,18,-99.99,,,-99.99,dwt +perl,2013-08-28 05:49:00,
2013-08-27 22:54:00,64.7,21.5,24.83,SSW,212,0.0,-999.0,19,-99.99,,,-99.99,dwt +perl,2013-08-28 05:54:00,
2013-08-27 22:59:00,64.5,21.3,24.83,SSW,212,2.0,-999.0,19,-99.99,,,-99.99,dwt +perl,2013-08-28 05:59:00,
2013-08-27 23:04:00,64.5,21.3,24.83,SSW,212,2.0,-999.0,19,-99.99,,,-99.99,dwt +perl,2013-08-28 06:04:00,
2013-08-27 23:09:00,64.6,21.4,24.83,SSW,212,2.0,-999.0,19,-99.99,,,-99.99,dwt +perl,2013-08-28 06:09:00,
2013-08-27 23:14:00,64.5,21.3,24.83,SSW,212,1.0,-999.0,19,-99.99,,,-99.99,dwt +perl,2013-08-28 06:14:00,
2013-08-27 23:19:00,64.3,24.6,24.83,SSW,212,0.0,-999.0,22,-99.99,,,-99.99,dwt +perl,2013-08-28 06:19:00,
2013-08-27 23:24:00,64.1,26.6,24.83,SSW,212,0.0,-999.0,24,-99.99,,,-99.99,dwt +perl,2013-08-28 06:24:00,
2013-08-27 23:29:00,63.9,23.2,24.83,SSW,212,1.0,-999.0,21,-99.99,,,-99.99,dwt +perl,2013-08-28 06:29:00,
2013-08-27 23:34:00,63.9,25.4,24.83,SSW,212,2.0,-999.0,23,-99.99,,,-99.99,dwt +perl,2013-08-28 06:34:00,
2013-08-27 23:39:00,64.0,28.4,24.83,SSW,212,2.0,-999.0,26,-99.99,,,-99.99,dwt +perl,2013-08-28 06:39:00,
2013-08-27 23:44:00,64.1,30.3,24.83,SSW,212,2.0,-999.0,28,-99.99,,,-99.99,dwt +perl,2013-08-28 06:44:00,
2013-08-27 23:49:00,64.0,35.8,24.83,SSW,212,3.0,-999.0,35,-99.99,,,-99.99,dwt +perl,2013-08-28 06:49:00,
2013-08-27 23:54:00,63.8,35.6,24.83,SSW,212,2.0,-999.0,35,-99.99,,,-99.99,dwt +perl,2013-08-28 06:54:00,
2013-08-27 23:59:00,63.6,33.2,24.83,SSW,212,3.0,-999.0,32,-99.99,,,-99.99,dwt +perl,2013-08-28 06:59:00,